<?xml version="1.0" encoding="UTF-8" standalone="no" ?>
<gpx xmlns="http://www.topografix.com/GPX/1/1" xmlns:xsi="http://www.w3.org/2001/XMLSchema-instance" xsi:schemaLocation="http://www.topografix.com/GPX/1/1 http://www.topografix.com/GPX/1/1/gpx.xsd" version="1.1" creator="VisuGPX - https://www.visugpx.com">
  <metadata>
    <name>Vacances 2021</name>
  </metadata>
  <trk>
    <name><![CDATA[Journal actif: 2021-07-22 15:16]]></name>
    <trkseg>
      <trkpt lat="49.32758" lon="6.12336">
        <ele>174.62</ele>
        <time>2021-07-22T17:16:52Z</time>
      </trkpt>
      <trkpt lat="49.32814" lon="6.12534">
        <ele>170.29</ele>
        <time>2021-07-22T17:17:05Z</time>
      </trkpt>
      <trkpt lat="49.3291" lon="6.12818">
        <ele>167.41</ele>
        <time>2021-07-22T17:17:21Z</time>
      </trkpt>
      <trkpt lat="49.32986" lon="6.13063">
        <ele>165.96</ele>
        <time>2021-07-22T17:17:35Z</time>
      </trkpt>
      <trkpt lat="49.33039" lon="6.13339">
        <ele>163.08</ele>
        <time>2021-07-22T17:17:49Z</time>
      </trkpt>
      <trkpt lat="49.33061" lon="6.13452">
        <ele>164.52</ele>
        <time>2021-07-22T17:17:56Z</time>
      </trkpt>
      <trkpt lat="49.33063" lon="6.13463">
        <ele>163.56</ele>
        <time>2021-07-22T17:18:02Z</time>
      </trkpt>
      <trkpt lat="49.33069" lon="6.13475">
        <ele>164.04</ele>
        <time>2021-07-22T17:18:19Z</time>
      </trkpt>
      <trkpt lat="49.33073" lon="6.13476">
        <ele>164.04</ele>
        <time>2021-07-22T17:18:20Z</time>
      </trkpt>
      <trkpt lat="49.33073" lon="6.13476">
        <ele>163.56</ele>
        <time>2021-07-22T17:18:21Z</time>
      </trkpt>
      <trkpt lat="49.33139" lon="6.13482">
        <ele>162.6</ele>
        <time>2021-07-22T17:18:30Z</time>
      </trkpt>
      <trkpt lat="49.33221" lon="6.13495">
        <ele>162.6</ele>
        <time>2021-07-22T17:18:42Z</time>
      </trkpt>
      <trkpt lat="49.333" lon="6.13528">
        <ele>161.64</ele>
        <time>2021-07-22T17:18:54Z</time>
      </trkpt>
      <trkpt lat="49.33332" lon="6.13535">
        <ele>161.64</ele>
        <time>2021-07-22T17:18:58Z</time>
      </trkpt>
      <trkpt lat="49.33338" lon="6.13534">
        <ele>161.64</ele>
        <time>2021-07-22T17:18:59Z</time>
      </trkpt>
      <trkpt lat="49.33349" lon="6.13535">
        <ele>161.64</ele>
        <time>2021-07-22T17:19:00Z</time>
      </trkpt>
      <trkpt lat="49.33353" lon="6.13541">
        <ele>161.64</ele>
        <time>2021-07-22T17:19:01Z</time>
      </trkpt>
      <trkpt lat="49.33357" lon="6.13547">
        <ele>161.64</ele>
        <time>2021-07-22T17:19:02Z</time>
      </trkpt>
      <trkpt lat="49.33361" lon="6.13555">
        <ele>161.64</ele>
        <time>2021-07-22T17:19:03Z</time>
      </trkpt>
      <trkpt lat="49.33366" lon="6.13563">
        <ele>161.64</ele>
        <time>2021-07-22T17:19:04Z</time>
      </trkpt>
      <trkpt lat="49.33372" lon="6.13571">
        <ele>161.64</ele>
        <time>2021-07-22T17:19:05Z</time>
      </trkpt>
      <trkpt lat="49.33376" lon="6.13582">
        <ele>161.16</ele>
        <time>2021-07-22T17:19:06Z</time>
      </trkpt>
      <trkpt lat="49.3338" lon="6.13593">
        <ele>161.16</ele>
        <time>2021-07-22T17:19:07Z</time>
      </trkpt>
      <trkpt lat="49.33384" lon="6.13605">
        <ele>161.16</ele>
        <time>2021-07-22T17:19:08Z</time>
      </trkpt>
      <trkpt lat="49.33388" lon="6.13617">
        <ele>161.16</ele>
        <time>2021-07-22T17:19:09Z</time>
      </trkpt>
      <trkpt lat="49.33446" lon="6.13769">
        <ele>160.68</ele>
        <time>2021-07-22T17:19:20Z</time>
      </trkpt>
      <trkpt lat="49.33534" lon="6.13941">
        <ele>160.2</ele>
        <time>2021-07-22T17:19:32Z</time>
      </trkpt>
      <trkpt lat="49.336" lon="6.14124">
        <ele>160.2</ele>
        <time>2021-07-22T17:19:44Z</time>
      </trkpt>
      <trkpt lat="49.33703" lon="6.14505">
        <ele>160.2</ele>
        <time>2021-07-22T17:20:03Z</time>
      </trkpt>
      <trkpt lat="49.33709" lon="6.1464">
        <ele>164.04</ele>
        <time>2021-07-22T17:20:10Z</time>
      </trkpt>
      <trkpt lat="49.33703" lon="6.14672">
        <ele>165</ele>
        <time>2021-07-22T17:20:13Z</time>
      </trkpt>
      <trkpt lat="49.33701" lon="6.14685">
        <ele>165</ele>
        <time>2021-07-22T17:20:14Z</time>
      </trkpt>
      <trkpt lat="49.33701" lon="6.14685">
        <ele>164.52</ele>
        <time>2021-07-22T17:20:15Z</time>
      </trkpt>
      <trkpt lat="49.337" lon="6.1469">
        <ele>164.04</ele>
        <time>2021-07-22T17:20:16Z</time>
      </trkpt>
      <trkpt lat="49.33694" lon="6.14695">
        <ele>164.04</ele>
        <time>2021-07-22T17:20:17Z</time>
      </trkpt>
      <trkpt lat="49.33691" lon="6.14694">
        <ele>164.04</ele>
        <time>2021-07-22T17:20:18Z</time>
      </trkpt>
      <trkpt lat="49.33691" lon="6.14694">
        <ele>165</ele>
        <time>2021-07-22T17:20:34Z</time>
      </trkpt>
      <trkpt lat="49.33698" lon="6.14698">
        <ele>165</ele>
        <time>2021-07-22T17:20:35Z</time>
      </trkpt>
      <trkpt lat="49.33697" lon="6.14701">
        <ele>165</ele>
        <time>2021-07-22T17:20:36Z</time>
      </trkpt>
      <trkpt lat="49.33696" lon="6.14709">
        <ele>165</ele>
        <time>2021-07-22T17:20:37Z</time>
      </trkpt>
      <trkpt lat="49.33695" lon="6.14713">
        <ele>164.52</ele>
        <time>2021-07-22T17:20:38Z</time>
      </trkpt>
      <trkpt lat="49.33695" lon="6.14713">
        <ele>165</ele>
        <time>2021-07-22T17:20:43Z</time>
      </trkpt>
      <trkpt lat="49.33695" lon="6.14713">
        <ele>165</ele>
        <time>2021-07-22T17:20:57Z</time>
      </trkpt>
      <trkpt lat="49.33696" lon="6.14695">
        <ele>165.48</ele>
        <time>2021-07-22T17:20:58Z</time>
      </trkpt>
      <trkpt lat="49.33697" lon="6.14696">
        <ele>165.48</ele>
        <time>2021-07-22T17:21:05Z</time>
      </trkpt>
      <trkpt lat="49.33698" lon="6.14696">
        <ele>165.48</ele>
        <time>2021-07-22T17:21:06Z</time>
      </trkpt>
      <trkpt lat="49.33699" lon="6.14695">
        <ele>165.48</ele>
        <time>2021-07-22T17:21:07Z</time>
      </trkpt>
      <trkpt lat="49.337" lon="6.1469">
        <ele>165.96</ele>
        <time>2021-07-22T17:21:08Z</time>
      </trkpt>
      <trkpt lat="49.33701" lon="6.14683">
        <ele>165.96</ele>
        <time>2021-07-22T17:21:09Z</time>
      </trkpt>
      <trkpt lat="49.33711" lon="6.14582">
        <ele>162.6</ele>
        <time>2021-07-22T17:21:19Z</time>
      </trkpt>
      <trkpt lat="49.3369" lon="6.14453">
        <ele>159.72</ele>
        <time>2021-07-22T17:21:28Z</time>
      </trkpt>
      <trkpt lat="49.33652" lon="6.14315">
        <ele>159.24</ele>
        <time>2021-07-22T17:21:38Z</time>
      </trkpt>
      <trkpt lat="49.33624" lon="6.14211">
        <ele>158.75</ele>
        <time>2021-07-22T17:21:50Z</time>
      </trkpt>
      <trkpt lat="49.33575" lon="6.14039">
        <ele>158.75</ele>
        <time>2021-07-22T17:22:02Z</time>
      </trkpt>
      <trkpt lat="49.33495" lon="6.1387">
        <ele>161.16</ele>
        <time>2021-07-22T17:22:14Z</time>
      </trkpt>
      <trkpt lat="49.33416" lon="6.13694">
        <ele>161.16</ele>
        <time>2021-07-22T17:22:26Z</time>
      </trkpt>
      <trkpt lat="49.3338" lon="6.13593">
        <ele>160.68</ele>
        <time>2021-07-22T17:22:33Z</time>
      </trkpt>
      <trkpt lat="49.33376" lon="6.1358">
        <ele>160.68</ele>
        <time>2021-07-22T17:22:34Z</time>
      </trkpt>
      <trkpt lat="49.33354" lon="6.13543">
        <ele>161.16</ele>
        <time>2021-07-22T17:22:41Z</time>
      </trkpt>
      <trkpt lat="49.33354" lon="6.13543">
        <ele>160.68</ele>
        <time>2021-07-22T17:23:13Z</time>
      </trkpt>
      <trkpt lat="49.33354" lon="6.13543">
        <ele>160.68</ele>
        <time>2021-07-22T17:23:19Z</time>
      </trkpt>
      <trkpt lat="49.3335" lon="6.13537">
        <ele>160.68</ele>
        <time>2021-07-22T17:23:20Z</time>
      </trkpt>
      <trkpt lat="49.33346" lon="6.13531">
        <ele>160.68</ele>
        <time>2021-07-22T17:23:21Z</time>
      </trkpt>
      <trkpt lat="49.33326" lon="6.13535">
        <ele>161.64</ele>
        <time>2021-07-22T17:23:24Z</time>
      </trkpt>
      <trkpt lat="49.33313" lon="6.13533">
        <ele>161.64</ele>
        <time>2021-07-22T17:23:25Z</time>
      </trkpt>
      <trkpt lat="49.33301" lon="6.13528">
        <ele>161.16</ele>
        <time>2021-07-22T17:23:26Z</time>
      </trkpt>
      <trkpt lat="49.33252" lon="6.13505">
        <ele>160.2</ele>
        <time>2021-07-22T17:23:33Z</time>
      </trkpt>
      <trkpt lat="49.33134" lon="6.13481">
        <ele>159.72</ele>
        <time>2021-07-22T17:23:47Z</time>
      </trkpt>
      <trkpt lat="49.33009" lon="6.13485">
        <ele>161.64</ele>
        <time>2021-07-22T17:23:59Z</time>
      </trkpt>
      <trkpt lat="49.3284" lon="6.1351">
        <ele>165</ele>
        <time>2021-07-22T17:24:13Z</time>
      </trkpt>
      <trkpt lat="49.32793" lon="6.13514">
        <ele>165</ele>
        <time>2021-07-22T17:24:20Z</time>
      </trkpt>
      <trkpt lat="49.32793" lon="6.13514">
        <ele>165</ele>
        <time>2021-07-22T17:24:21Z</time>
      </trkpt>
      <trkpt lat="49.32782" lon="6.13489">
        <ele>165.48</ele>
        <time>2021-07-22T17:24:23Z</time>
      </trkpt>
      <trkpt lat="49.32778" lon="6.13485">
        <ele>165.48</ele>
        <time>2021-07-22T17:24:24Z</time>
      </trkpt>
      <trkpt lat="49.32765" lon="6.13482">
        <ele>165.48</ele>
        <time>2021-07-22T17:24:25Z</time>
      </trkpt>
      <trkpt lat="49.32756" lon="6.1349">
        <ele>165.48</ele>
        <time>2021-07-22T17:24:26Z</time>
      </trkpt>
      <trkpt lat="49.32753" lon="6.13495">
        <ele>165.48</ele>
        <time>2021-07-22T17:24:27Z</time>
      </trkpt>
      <trkpt lat="49.32751" lon="6.1351">
        <ele>164.52</ele>
        <time>2021-07-22T17:24:28Z</time>
      </trkpt>
      <trkpt lat="49.3275" lon="6.13516">
        <ele>164.04</ele>
        <time>2021-07-22T17:24:29Z</time>
      </trkpt>
      <trkpt lat="49.32754" lon="6.13527">
        <ele>163.08</ele>
        <time>2021-07-22T17:24:30Z</time>
      </trkpt>
      <trkpt lat="49.32756" lon="6.13533">
        <ele>163.08</ele>
        <time>2021-07-22T17:24:31Z</time>
      </trkpt>
      <trkpt lat="49.32759" lon="6.13539">
        <ele>162.6</ele>
        <time>2021-07-22T17:24:32Z</time>
      </trkpt>
      <trkpt lat="49.32766" lon="6.13546">
        <ele>162.12</ele>
        <time>2021-07-22T17:24:33Z</time>
      </trkpt>
      <trkpt lat="49.32774" lon="6.13546">
        <ele>162.6</ele>
        <time>2021-07-22T17:24:34Z</time>
      </trkpt>
      <trkpt lat="49.32778" lon="6.13544">
        <ele>162.6</ele>
        <time>2021-07-22T17:24:35Z</time>
      </trkpt>
      <trkpt lat="49.32783" lon="6.13541">
        <ele>162.6</ele>
        <time>2021-07-22T17:24:36Z</time>
      </trkpt>
      <trkpt lat="49.32789" lon="6.13528">
        <ele>162.6</ele>
        <time>2021-07-22T17:24:37Z</time>
      </trkpt>
      <trkpt lat="49.32791" lon="6.13521">
        <ele>162.6</ele>
        <time>2021-07-22T17:24:38Z</time>
      </trkpt>
      <trkpt lat="49.32792" lon="6.13507">
        <ele>162.6</ele>
        <time>2021-07-22T17:24:39Z</time>
      </trkpt>
      <trkpt lat="49.32784" lon="6.13491">
        <ele>162.6</ele>
        <time>2021-07-22T17:24:40Z</time>
      </trkpt>
      <trkpt lat="49.3278" lon="6.13487">
        <ele>162.6</ele>
        <time>2021-07-22T17:24:41Z</time>
      </trkpt>
      <trkpt lat="49.32767" lon="6.13481">
        <ele>162.6</ele>
        <time>2021-07-22T17:24:42Z</time>
      </trkpt>
      <trkpt lat="49.32757" lon="6.13489">
        <ele>162.12</ele>
        <time>2021-07-22T17:24:43Z</time>
      </trkpt>
      <trkpt lat="49.32752" lon="6.13496">
        <ele>162.6</ele>
        <time>2021-07-22T17:24:44Z</time>
      </trkpt>
      <trkpt lat="49.32752" lon="6.13496">
        <ele>162.6</ele>
        <time>2021-07-22T17:24:45Z</time>
      </trkpt>
      <trkpt lat="49.32744" lon="6.13518">
        <ele>162.12</ele>
        <time>2021-07-22T17:24:46Z</time>
      </trkpt>
      <trkpt lat="49.32735" lon="6.13519">
        <ele>162.12</ele>
        <time>2021-07-22T17:24:47Z</time>
      </trkpt>
      <trkpt lat="49.32644" lon="6.13528">
        <ele>160.68</ele>
        <time>2021-07-22T17:24:57Z</time>
      </trkpt>
      <trkpt lat="49.32579" lon="6.13536">
        <ele>163.08</ele>
        <time>2021-07-22T17:25:06Z</time>
      </trkpt>
      <trkpt lat="49.32555" lon="6.13541">
        <ele>163.56</ele>
        <time>2021-07-22T17:25:09Z</time>
      </trkpt>
      <trkpt lat="49.32547" lon="6.13543">
        <ele>163.56</ele>
        <time>2021-07-22T17:25:10Z</time>
      </trkpt>
      <trkpt lat="49.32542" lon="6.13548">
        <ele>163.56</ele>
        <time>2021-07-22T17:25:11Z</time>
      </trkpt>
      <trkpt lat="49.32535" lon="6.13554">
        <ele>163.56</ele>
        <time>2021-07-22T17:25:12Z</time>
      </trkpt>
      <trkpt lat="49.32522" lon="6.13568">
        <ele>163.56</ele>
        <time>2021-07-22T17:25:13Z</time>
      </trkpt>
      <trkpt lat="49.3246" lon="6.13667">
        <ele>164.52</ele>
        <time>2021-07-22T17:25:26Z</time>
      </trkpt>
      <trkpt lat="49.32398" lon="6.13729">
        <ele>165</ele>
        <time>2021-07-22T17:25:36Z</time>
      </trkpt>
      <trkpt lat="49.32293" lon="6.13793">
        <ele>163.08</ele>
        <time>2021-07-22T17:25:48Z</time>
      </trkpt>
      <trkpt lat="49.32282" lon="6.13801">
        <ele>162.12</ele>
        <time>2021-07-22T17:25:49Z</time>
      </trkpt>
      <trkpt lat="49.32174" lon="6.13896">
        <ele>160.2</ele>
        <time>2021-07-22T17:26:01Z</time>
      </trkpt>
      <trkpt lat="49.32037" lon="6.13975">
        <ele>159.72</ele>
        <time>2021-07-22T17:26:13Z</time>
      </trkpt>
      <trkpt lat="49.31901" lon="6.14023">
        <ele>156.35</ele>
        <time>2021-07-22T17:26:24Z</time>
      </trkpt>
      <trkpt lat="49.31832" lon="6.14047">
        <ele>158.75</ele>
        <time>2021-07-22T17:26:34Z</time>
      </trkpt>
      <trkpt lat="49.31773" lon="6.14072">
        <ele>158.27</ele>
        <time>2021-07-22T17:26:40Z</time>
      </trkpt>
      <trkpt lat="49.31691" lon="6.14162">
        <ele>157.31</ele>
        <time>2021-07-22T17:26:49Z</time>
      </trkpt>
      <trkpt lat="49.31534" lon="6.14335">
        <ele>154.91</ele>
        <time>2021-07-22T17:27:03Z</time>
      </trkpt>
    </trkseg>
  </trk>
</gpx>